^^

New Milford Station Historical Data

 
Daily Summary for September 19, 2019 Units:  English    Metric   Both
Daily Weekly Monthly Yearly Custom
  Current: High: Low: Average:
Temperature: 42.2 °F 47.2 °F 41.6 °F 43.4 °F
Dew Point: 41.7 °F 46 °F 41 °F 42.7 °F
Humidity: 98% 98% 95% 97%
Wind Speed: 0mph 0mph 0mph 0mph
Wind Gust: 0mph 0mph - -
WindCalm - - North
Pressure: 30.34 in 30.34 in 30.29 in -
Precipitation: 0 in      
Historical Graphs
 
 
Tabular Data for September 19, 2019
Time Temperature Dew Point Pressure Wind Wind Speed Wind Gust Humidity Rainfall Rate (Hourly) solar
00:00 47.2 °F 45.9 °F 30.29 in Calm     95% 0 in WeatherDisplay:10.37 W/m2
00:05 47.1 °F 46 °F 30.29 in Calm     96% 0 in WeatherDisplay:10.37 W/m2
00:10 47 °F 45.9 °F 30.30 in Calm     96% 0 in WeatherDisplay:10.37 W/m2
00:15 47 °F 45.9 °F 30.30 in Calm     96% 0 in WeatherDisplay:10.37 W/m2
00:20 46.8 °F 45.7 °F 30.30 in Calm     96% 0 in WeatherDisplay:10.37 W/m2
00:25 46.7 °F 45.6 °F 30.30 in Calm     96% 0 in WeatherDisplay:10.37 W/m2
00:30 46.5 °F 45.5 °F 30.29 in Calm     96% 0 in WeatherDisplay:10.37 W/m2
00:35 46.3 °F 45.2 °F 30.30 in Calm     96% 0 in WeatherDisplay:10.37 W/m2
00:40 46.3 °F 45.2 °F 30.30 in Calm     96% 0 in WeatherDisplay:10.37 W/m2
00:45 46.2 °F 45.1 °F 30.30 in Calm     96% 0 in WeatherDisplay:10.37 W/m2
00:50 46.2 °F 45.1 °F 30.30 in Calm     96% 0 in WeatherDisplay:10.37 W/m2
00:55 46 °F 45.2 °F 30.30 in Calm     97% 0 in WeatherDisplay:10.37 W/m2
01:00 45.9 °F 44.8 °F 30.30 in Calm     96% 0 in WeatherDisplay:10.37 W/m2
01:05 45.8 °F 44.7 °F 30.31 in Calm     96% 0 in WeatherDisplay:10.37 W/m2
01:10 45.8 °F 44.7 °F 30.31 in Calm     96% 0 in WeatherDisplay:10.37 W/m2
01:15 45.6 °F 44.5 °F 30.31 in Calm     96% 0 in WeatherDisplay:10.37 W/m2
01:20 45.5 °F 44.4 °F 30.31 in Calm     96% 0 in WeatherDisplay:10.37 W/m2
01:25 45.4 °F 44.3 °F 30.31 in Calm     96% 0 in WeatherDisplay:10.37 W/m2
01:30 45.2 °F 44.1 °F 30.31 in Calm     96% 0 in WeatherDisplay:10.37 W/m2
01:35 45.2 °F 44.4 °F 30.31 in Calm     97% 0 in WeatherDisplay:10.37 W/m2
01:40 45 °F 44 °F 30.31 in Calm     96% 0 in WeatherDisplay:10.37 W/m2
01:45 44.9 °F 43.9 °F 30.31 in Calm     96% 0 in WeatherDisplay:10.37 W/m2
01:50 44.8 °F 43.7 °F 30.31 in Calm     96% 0 in WeatherDisplay:10.37 W/m2
01:55 44.6 °F 43.8 °F 30.31 in Calm     97% 0 in WeatherDisplay:10.37 W/m2
02:00 44.5 °F 43.7 °F 30.31 in Calm     97% 0 in WeatherDisplay:10.37 W/m2
02:05 44.3 °F 43.5 °F 30.31 in Calm     97% 0 in WeatherDisplay:10.37 W/m2
02:10 44.1 °F 43.3 °F 30.31 in Calm     97% 0 in WeatherDisplay:10.37 W/m2
02:15 44.1 °F 43.3 °F 30.31 in Calm     97% 0 in WeatherDisplay:10.37 W/m2
02:20 43.9 °F 43.1 °F 30.31 in Calm     97% 0 in WeatherDisplay:10.37 W/m2
02:25 44.1 °F 43.3 °F 30.30 in Calm     97% 0 in WeatherDisplay:10.37 W/m2
02:30 44 °F 43.2 °F 30.30 in Calm     97% 0 in WeatherDisplay:10.37 W/m2
02:35 43.8 °F 43 °F 30.30 in Calm     97% 0 in WeatherDisplay:10.37 W/m2
02:40 43.8 °F 43 °F 30.30 in Calm     97% 0 in WeatherDisplay:10.37 W/m2
02:45 43.7 °F 42.9 °F 30.30 in Calm     97% 0 in WeatherDisplay:10.37 W/m2
02:50 43.8 °F 43 °F 30.30 in Calm     97% 0 in WeatherDisplay:10.37 W/m2
02:55 43.7 °F 42.9 °F 30.30 in Calm     97% 0 in WeatherDisplay:10.37 W/m2
03:00 43.6 °F 42.8 °F 30.30 in Calm     97% 0 in WeatherDisplay:10.37 W/m2
03:05 43.6 °F 42.8 °F 30.30 in Calm     97% 0 in WeatherDisplay:10.37 W/m2
03:10 43.5 °F 42.7 °F 30.31 in Calm     97% 0 in WeatherDisplay:10.37 W/m2
03:15 43.5 °F 42.7 °F 30.31 in Calm     97% 0 in WeatherDisplay:10.37 W/m2
03:20 43.5 °F 42.7 °F 30.31 in Calm     97% 0 in WeatherDisplay:10.37 W/m2
03:25 43.3 °F 42.5 °F 30.31 in Calm     97% 0 in WeatherDisplay:10.37 W/m2
03:30 43.4 °F 42.9 °F 30.31 in Calm     98% 0 in WeatherDisplay:10.37 W/m2
03:35 43.1 °F 42.3 °F 30.30 in Calm     97% 0 in WeatherDisplay:10.37 W/m2
03:40 43.1 °F 42.6 °F 30.30 in Calm     98% 0 in WeatherDisplay:10.37 W/m2
03:45 43.1 °F 42.6 °F 30.30 in Calm     98% 0 in WeatherDisplay:10.37 W/m2
03:50 43.1 °F 42.5 °F 30.30 in Calm     98% 0 in WeatherDisplay:10.37 W/m2
03:55 43 °F 42.5 °F 30.30 in Calm     98% 0 in WeatherDisplay:10.37 W/m2
04:00 42.8 °F 42.3 °F 30.30 in Calm     98% 0 in WeatherDisplay:10.37 W/m2
04:05 43 °F 42.5 °F 30.30 in Calm     98% 0 in WeatherDisplay:10.37 W/m2
04:10 42.8 °F 42.3 °F 30.30 in Calm     98% 0 in WeatherDisplay:10.37 W/m2
04:15 42.8 °F 42.2 °F 30.30 in Calm     98% 0 in WeatherDisplay:10.37 W/m2
04:20 42.5 °F 42 °F 30.30 in Calm     98% 0 in WeatherDisplay:10.37 W/m2
04:25 42.5 °F 42 °F 30.30 in Calm     98% 0 in WeatherDisplay:10.37 W/m2
04:30 42.6 °F 42.1 °F 30.30 in Calm     98% 0 in WeatherDisplay:10.37 W/m2
04:35 42.6 °F 42.1 °F 30.30 in Calm     98% 0 in WeatherDisplay:10.37 W/m2
04:40 42.6 °F 42.1 °F 30.31 in Calm     98% 0 in WeatherDisplay:10.37 W/m2
04:45 42.6 °F 42 °F 30.31 in Calm     98% 0 in WeatherDisplay:10.37 W/m2
04:50 42.4 °F 41.9 °F 30.31 in Calm     98% 0 in WeatherDisplay:10.37 W/m2
04:55 42.5 °F 42 °F 30.31 in Calm     98% 0 in WeatherDisplay:10.37 W/m2
05:00 42.4 °F 41.9 °F 30.30 in Calm     98% 0 in WeatherDisplay:10.37 W/m2
05:05 42.3 °F 41.7 °F 30.30 in Calm     98% 0 in WeatherDisplay:10.37 W/m2
05:10 42 °F 41.4 °F 30.30 in Calm     98% 0 in WeatherDisplay:10.37 W/m2
05:15 41.9 °F 41.4 °F 30.30 in Calm     98% 0 in WeatherDisplay:10.37 W/m2
05:20 42.1 °F 41.6 °F 30.30 in Calm     98% 0 in WeatherDisplay:10.37 W/m2
05:25 42.1 °F 41.6 °F 30.30 in Calm     98% 0 in WeatherDisplay:10.37 W/m2
05:30 41.9 °F 41.4 °F 30.30 in Calm     98% 0 in WeatherDisplay:10.37 W/m2
05:35 41.7 °F 41.2 °F 30.31 in Calm     98% 0 in WeatherDisplay:10.37 W/m2
05:40 41.6 °F 41.1 °F 30.31 in Calm     98% 0 in WeatherDisplay:10.37 W/m2
05:45 41.7 °F 41.2 °F 30.31 in Calm     98% 0 in WeatherDisplay:10.37 W/m2
05:50 41.6 °F 41.1 °F 30.31 in Calm     98% 0 in WeatherDisplay:10.37 W/m2
05:55 41.7 °F 41.2 °F 30.31 in Calm     98% 0 in WeatherDisplay:10.37 W/m2
06:00 41.8 °F 41.2 °F 30.31 in Calm     98% 0 in WeatherDisplay:10.37 W/m2
06:05 41.8 °F 41.3 °F 30.31 in Calm     98% 0 in WeatherDisplay:10.37 W/m2
06:10 41.9 °F 41.4 °F 30.31 in Calm     98% 0 in WeatherDisplay:10.37 W/m2
06:15 41.9 °F 41.3 °F 30.32 in Calm     98% 0 in WeatherDisplay:10.37 W/m2
06:20 41.8 °F 41.3 °F 30.32 in Calm     98% 0 in WeatherDisplay:10.37 W/m2
06:25 41.8 °F 41.2 °F 30.32 in Calm     98% 0 in WeatherDisplay:10.37 W/m2
06:30 41.7 °F 41.1 °F 30.32 in Calm     98% 0 in WeatherDisplay:10.37 W/m2
06:35 41.8 °F 41.3 °F 30.32 in Calm     98% 0 in WeatherDisplay:10.37 W/m2
06:40 41.8 °F 41.3 °F 30.32 in Calm     98% 0 in WeatherDisplay:10.37 W/m2
06:45 41.8 °F 41.3 °F 30.33 in Calm     98% 0 in WeatherDisplay:10.37 W/m2
06:50 41.8 °F 41.2 °F 30.33 in Calm     98% 0 in WeatherDisplay:10.37 W/m2
06:55 41.6 °F 41 °F 30.33 in Calm     98% 0 in WeatherDisplay:10.37 W/m2
07:00 41.7 °F 41.1 °F 30.33 in Calm     98% 0 in WeatherDisplay:10.37 W/m2
07:05 41.7 °F 41.2 °F 30.33 in Calm     98% 0 in WeatherDisplay:10.37 W/m2
07:10 41.7 °F 41.1 °F 30.33 in Calm     98% 0 in WeatherDisplay:10.37 W/m2
07:15 41.7 °F 41.1 °F 30.34 in Calm     98% 0 in WeatherDisplay:10.37 W/m2
07:20 41.7 °F 41.2 °F 30.34 in Calm     98% 0 in WeatherDisplay:10.37 W/m2
07:25 41.7 °F 41.2 °F 30.34 in Calm     98% 0 in WeatherDisplay:10.37 W/m2
07:30 41.8 °F 41.3 °F 30.33 in Calm     98% 0 in WeatherDisplay:10.37 W/m2
07:35 41.9 °F 41.4 °F 30.33 in Calm     98% 0 in WeatherDisplay:10.37 W/m2
07:40 41.9 °F 41.4 °F 30.34 in Calm     98% 0 in WeatherDisplay:10.37 W/m2
07:45 41.9 °F 41.4 °F 30.34 in Calm     98% 0 in WeatherDisplay:10.37 W/m2
07:50 42.1 °F 41.6 °F 30.34 in Calm     98% 0 in WeatherDisplay:10.37 W/m2
07:55 42.2 °F 41.7 °F 30.34 in Calm     98% 0 in WeatherDisplay:10.37 W/m2
Compliments of Weather Underground - 1.25 mb